Time;durP1;ratioP1;P1;durP2;ratioP2;P2;SDS_P1;SDS_P2;PMS_P1;PMS_P2;Temp;Humidity;BMP_temperature;BMP_pressure;BME280_temperature;BME280_humidity;BME280_pressure;Samples;Min_cycle;Max_cycle;Signal;HPM_P1;HPM_P2
2022/09/14 00:01:59;;;;;;;10.68;2.17;;;17.30;99.90;;;;;;5024332;28;20481;-64
2022/09/14 00:04:25;;;;;;;7.88;2.13;;;17.20;99.90;;;;;;5019677;28;20025;-64
2022/09/14 00:06:50;;;;;;;8.00;1.90;;;17.10;99.90;;;;;;5025356;28;20044;-64
2022/09/14 00:09:22;;;;;;;7.05;1.95;;;17.10;99.90;;;;;;5016438;28;20025;-64
2022/09/14 00:11:48;;;;;;;9.30;2.20;;;17.00;99.90;;;;;;5022757;28;20104;-65
2022/09/14 00:14:14;;;;;;;7.15;2.20;;;17.00;99.90;;;;;;5019723;28;20328;-63
2022/09/14 00:16:41;;;;;;;7.05;1.70;;;16.90;99.90;;;;;;5014935;28;20434;-64
2022/09/14 00:19:20;;;;;;;9.55;2.30;;;16.90;99.90;;;;;;5025227;28;20032;-64
2022/09/14 00:21:50;;;;;;;11.63;2.47;;;16.90;99.90;;;;;;5020945;28;20042;-64
2022/09/14 00:24:16;;;;;;;6.75;1.83;;;16.90;99.90;;;;;;5021552;28;20057;-64
2022/09/14 00:26:42;;;;;;;6.70;1.90;;;16.90;99.90;;;;;;5023982;28;20017;-64
2022/09/14 00:29:09;;;;;;;7.53;1.90;;;16.80;99.90;;;;;;5024868;28;20508;-64
2022/09/14 00:31:37;;;;;;;9.63;2.22;;;16.80;99.90;;;;;;5023652;28;20041;-63
2022/09/14 00:34:03;;;;;;;7.47;2.08;;;16.90;99.90;;;;;;5024869;28;20490;-64
2022/09/14 00:36:30;;;;;;;7.82;2.10;;;16.90;99.90;;;;;;5024322;28;20051;-64
2022/09/14 00:38:56;;;;;;;7.70;2.08;;;16.80;99.90;;;;;;5023536;28;20084;-64
2022/09/14 00:41:26;;;;;;;8.98;1.95;;;16.80;99.90;;;;;;5024720;28;20026;-64
2022/09/14 00:43:57;;;;;;;9.13;2.13;;;16.90;99.90;;;;;;5027035;28;20071;-64
2022/09/14 00:46:25;;;;;;;9.00;2.10;;;17.00;99.90;;;;;;5025193;28;20102;-64
2022/09/14 00:48:52;;;;;;;9.40;1.98;;;16.90;99.90;;;;;;5039991;28;20362;-64
2022/09/14 00:51:20;;;;;;;11.48;2.50;;;16.80;99.90;;;;;;5040016;28;20088;-64
2022/09/14 00:53:46;;;;;;;6.43;1.80;;;16.80;99.90;;;;;;5023456;28;20064;-64
2022/09/14 00:56:13;;;;;;;10.23;2.13;;;16.80;99.90;;;;;;5023798;28;20049;-64
2022/09/14 00:58:40;;;;;;;14.07;2.30;;;16.80;99.90;;;;;;5027936;28;20693;-64
2022/09/14 01:01:06;;;;;;;10.35;2.00;;;16.80;99.90;;;;;;5022123;28;20022;-64
2022/09/14 01:03:32;;;;;;;8.40;1.90;;;16.80;99.90;;;;;;5027000;28;20044;-64
2022/09/14 01:06:37;;;;;;;7.80;2.00;;;16.80;99.90;;;;;;5026781;28;20021;-63
2022/09/14 01:09:22;;;;;;;5.97;1.70;;;16.80;99.90;;;;;;5025877;28;20460;-64
2022/09/14 01:12:06;;;;;;;7.70;2.00;;;16.80;99.90;;;;;;5023624;28;20123;-64
2022/09/14 01:14:43;;;;;;;6.40;2.10;;;16.90;99.90;;;;;;5025196;28;20030;-64
2022/09/14 01:17:18;;;;;;;6.53;1.98;;;16.90;99.90;;;;;;5037225;28;20389;-64
2022/09/14 01:20:13;;;;;;;10.63;2.17;;;16.80;99.90;;;;;;5015716;28;20025;-64
2022/09/14 01:23:02;;;;;;;12.80;2.50;;;16.90;99.90;;;;;;5021353;28;20124;-64
2022/09/14 01:25:58;;;;;;;13.05;2.00;;;16.90;99.90;;;;;;5020599;28;20025;-64
2022/09/14 01:28:37;;;;;;;6.88;2.13;;;16.90;99.90;;;;;;5025806;28;20053;-64
2022/09/14 01:31:10;;;;;;;8.43;1.70;;;17.00;99.90;;;;;;5028439;28;20025;-64
2022/09/14 01:33:41;;;;;;;9.25;1.80;;;17.00;99.90;;;;;;5026458;28;20037;-64
2022/09/14 01:36:09;;;;;;;6.45;1.60;;;17.00;99.90;;;;;;5027449;28;20024;-64
2022/09/14 01:38:42;;;;;;;6.90;1.85;;;16.90;99.90;;;;;;5030669;28;20022;-64
2022/09/14 01:41:11;;;;;;;7.07;1.70;;;16.90;99.90;;;;;;5007954;28;20380;-63
2022/09/14 01:43:39;;;;;;;8.63;1.73;;;16.90;99.90;;;;;;5024420;28;20037;-63
2022/09/14 01:46:28;;;;;;;6.60;1.75;;;16.80;99.90;;;;;;5025567;28;20473;-64
2022/09/14 01:49:31;;;;;;;10.38;1.77;;;16.60;99.90;;;;;;5025945;28;20125;-64
2022/09/14 01:52:09;;;;;;;9.77;1.80;;;16.50;99.90;;;;;;5027408;28;20037;-64
2022/09/14 01:54:48;;;;;;;9.18;2.10;;;16.40;99.90;;;;;;5026943;28;20029;-64
2022/09/14 01:57:41;;;;;;;7.40;1.77;;;16.30;99.90;;;;;;5042766;28;20643;-64
2022/09/14 02:00:10;;;;;;;10.02;2.50;;;16.40;99.90;;;;;;5027873;28;20372;-64
2022/09/14 02:02:48;;;;;;;12.55;2.28;;;16.40;99.90;;;;;;5023580;28;20396;-64
2022/09/14 02:05:28;;;;;;;10.23;2.28;;;16.30;99.90;;;;;;5030221;28;20080;-64
2022/09/14 02:07:54;;;;;;;;;;;16.30;99.90;;;;;;5025645;28;20425;-64
2022/09/14 02:10:20;;;;;;;7.55;1.83;;;16.30;99.90;;;;;;5027046;28;19928;-64
2022/09/14 02:12:45;;;;;;;8.55;2.00;;;16.30;99.90;;;;;;5019941;28;20047;-64
2022/09/14 02:15:14;;;;;;;10.23;2.22;;;16.20;99.90;;;;;;5016240;28;20273;-64
2022/09/14 02:17:40;;;;;;;11.70;2.47;;;16.10;99.90;;;;;;5026339;28;20037;-64
2022/09/14 02:20:10;;;;;;;9.45;2.25;;;15.90;99.90;;;;;;5026753;28;20024;-63
2022/09/14 02:22:36;;;;;;;9.60;2.30;;;15.80;99.90;;;;;;5026415;28;20038;-63
2022/09/14 02:25:03;;;;;;;9.48;2.20;;;15.70;99.90;;;;;;5020781;28;20509;-63
2022/09/14 02:27:29;;;;;;;9.52;2.15;;;15.70;99.90;;;;;;5026757;28;20029;-63
2022/09/14 02:29:54;;;;;;;9.13;2.40;;;15.60;99.90;;;;;;5041523;28;20410;-63
2022/09/14 02:32:26;;;;;;;8.70;2.30;;;15.50;99.90;;;;;;5037959;28;20160;-63
2022/09/14 02:35:17;;;;;;;8.20;2.28;;;15.30;99.90;;;;;;5022951;28;20050;-63
2022/09/14 02:38:10;;;;;;;12.48;2.50;;;15.30;99.90;;;;;;5006248;28;20029;-63
2022/09/14 02:40:52;;;;;;;10.68;2.83;;;15.20;99.90;;;;;;5029739;28;20120;-64
2022/09/14 02:43:58;;;;;;;7.45;2.35;;;15.10;99.90;;;;;;5020865;28;20021;-63
2022/09/14 02:46:52;;;;;;;9.57;2.17;;;15.10;99.90;;;;;;5021021;28;20052;-63
2022/09/14 02:49:18;;;;;;;14.52;2.85;;;15.10;99.90;;;;;;5016834;28;20040;-63
2022/09/14 02:51:58;;;;;;;10.75;2.95;;;15.00;99.90;;;;;;5041599;28;20030;-63
2022/09/14 02:54:34;;;;;;;9.70;2.83;;;15.00;99.90;;;;;;5042231;28;20057;-63
2022/09/14 02:57:01;;;;;;;12.80;3.15;;;15.00;99.90;;;;;;5018400;28;20025;-63
2022/09/14 02:59:27;;;;;;;11.93;2.53;;;14.90;99.90;;;;;;5025774;28;20485;-63
2022/09/14 03:01:53;;;;;;;10.20;2.40;;;14.90;99.90;;;;;;5030484;28;20477;-66
2022/09/14 03:04:18;;;;;;;7.90;2.47;;;14.90;99.90;;;;;;5038466;28;20193;-66
2022/09/14 03:06:44;;;;;;;6.95;2.83;;;14.80;99.90;;;;;;5031085;28;20032;-66
2022/09/14 03:09:10;;;;;;;13.88;2.70;;;14.90;99.90;;;;;;5021909;28;20366;-66
2022/09/14 03:11:35;;;;;;;10.13;2.80;;;14.90;99.90;;;;;;5024591;28;20033;-66
2022/09/14 03:14:01;;;;;;;10.73;2.70;;;14.90;99.90;;;;;;5024456;28;20037;-65
2022/09/14 03:16:26;;;;;;;13.13;2.70;;;14.80;99.90;;;;;;5030175;28;20033;-65
2022/09/14 03:18:52;;;;;;;10.50;2.38;;;14.90;99.90;;;;;;5025441;28;20030;-66
2022/09/14 03:21:18;;;;;;;10.45;2.83;;;14.90;99.90;;;;;;5037778;28;20064;-66
2022/09/14 03:23:46;;;;;;;7.57;2.72;;;14.90;99.90;;;;;;5031222;28;20034;-66
2022/09/14 03:26:17;;;;;;;11.25;2.65;;;14.80;99.90;;;;;;5032248;28;20527;-66
2022/09/14 03:28:44;;;;;;;8.82;2.63;;;14.80;99.90;;;;;;5027063;28;20018;-65
2022/09/14 03:31:11;;;;;;;11.35;3.10;;;14.80;99.90;;;;;;5028007;28;20034;-65
2022/09/14 03:33:37;;;;;;;10.43;2.88;;;14.70;99.90;;;;;;5030268;28;20768;-65
2022/09/14 03:36:18;;;;;;;12.13;3.05;;;14.70;99.90;;;;;;5028302;28;20076;-65
2022/09/14 03:38:52;;;;;;;10.57;2.78;;;14.80;99.90;;;;;;5020760;28;20032;-66
2022/09/14 03:41:19;;;;;;;9.35;2.60;;;14.70;99.90;;;;;;5027710;28;20048;-66
2022/09/14 03:43:45;;;;;;;13.00;3.13;;;14.70;99.90;;;;;;5028674;28;20104;-66
2022/09/14 03:46:16;;;;;;;15.73;3.20;;;14.60;99.90;;;;;;5026476;28;20056;-65
2022/09/14 03:48:43;;;;;;;9.77;2.80;;;14.60;99.90;;;;;;5022623;28;20453;-65
2022/09/14 03:51:10;;;;;;;10.85;2.88;;;14.60;99.90;;;;;;5029891;28;20033;-65
2022/09/14 03:53:35;;;;;;;15.45;3.03;;;14.60;99.90;;;;;;5026644;28;20037;-66
2022/09/14 03:56:09;;;;;;;9.32;2.80;;;14.80;99.90;;;;;;5041451;28;20040;-66
2022/09/14 03:58:35;;;;;;;12.30;2.75;;;14.80;99.90;;;;;;5025979;28;20028;-66
2022/09/14 04:01:07;;;;;;;11.30;2.78;;;14.80;99.90;;;;;;5020233;28;20566;-65
2022/09/14 04:03:33;;;;;;;10.00;2.80;;;14.70;99.90;;;;;;5015608;28;20044;-66
2022/09/14 04:05:59;;;;;;;11.73;2.90;;;14.70;99.90;;;;;;5046991;28;20045;-66
2022/09/14 04:08:25;;;;;;;10.57;3.08;;;14.80;99.90;;;;;;5029508;28;20508;-65
2022/09/14 04:10:50;;;;;;;9.48;3.58;;;14.70;99.90;;;;;;5028194;28;20104;-66
2022/09/14 04:13:16;;;;;;;13.75;3.38;;;14.60;99.90;;;;;;5028048;28;20133;-66
2022/09/14 04:15:42;;;;;;;11.45;3.22;;;14.60;99.90;;;;;;5043825;28;20026;-67
2022/09/14 04:18:07;;;;;;;10.15;3.00;;;14.70;99.90;;;;;;5029080;28;20064;-66
2022/09/14 04:20:34;;;;;;;9.15;3.15;;;14.60;99.90;;;;;;5027572;28;20494;-66
2022/09/14 04:22:59;;;;;;;13.38;2.83;;;14.70;99.90;;;;;;5028737;28;20048;-66
2022/09/14 04:25:25;;;;;;;11.65;3.33;;;14.70;99.90;;;;;;5028521;28;20025;-66
2022/09/14 04:27:50;;;;;;;7.70;2.95;;;14.60;99.90;;;;;;5027283;28;20021;-66
2022/09/14 04:30:16;;;;;;;8.90;2.92;;;14.60;99.90;;;;;;5027429;28;20036;-66
2022/09/14 04:32:43;;;;;;;14.68;3.30;;;14.60;99.90;;;;;;5025426;28;20026;-66
2022/09/14 04:35:09;;;;;;;16.48;3.22;;;14.60;99.90;;;;;;5029481;28;20354;-66
2022/09/14 04:37:34;;;;;;;14.15;3.10;;;14.50;99.90;;;;;;5028829;28;20044;-66
2022/09/14 04:40:00;;;;;;;9.98;3.40;;;14.50;99.90;;;;;;5029878;28;20025;-66
2022/09/14 04:42:28;;;;;;;13.20;4.00;;;14.50;99.90;;;;;;5040554;28;20022;-65
2022/09/14 04:44:53;;;;;;;14.70;3.20;;;14.60;99.90;;;;;;5030607;28;20104;-66
2022/09/14 04:47:19;;;;;;;12.02;3.22;;;14.70;99.90;;;;;;5029262;28;20132;-66
2022/09/14 04:49:44;;;;;;;10.32;3.13;;;14.70;99.90;;;;;;5025982;28;20044;-66
2022/09/14 04:52:10;;;;;;;11.95;3.50;;;14.70;99.90;;;;;;5025528;28;20401;-66
2022/09/14 04:54:36;;;;;;;8.95;3.15;;;14.60;99.90;;;;;;5026345;28;20201;-66
2022/09/14 04:57:01;;;;;;;9.98;2.97;;;14.50;99.90;;;;;;5024084;28;20026;-67
2022/09/14 04:59:27;;;;;;;14.18;3.38;;;14.50;99.90;;;;;;5027224;28;20032;-66
2022/09/14 05:01:53;;;;;;;14.80;4.28;;;14.50;99.90;;;;;;5024408;28;20776;-66
2022/09/14 05:04:18;;;;;;;11.57;3.40;;;14.50;99.90;;;;;;5027743;28;20496;-67
2022/09/14 05:06:44;;;;;;;9.90;3.60;;;14.50;99.90;;;;;;5024407;28;20028;-66
2022/09/14 05:09:14;;;;;;;23.20;3.97;;;14.50;99.90;;;;;;5023316;28;20021;-66
2022/09/14 05:11:40;;;;;;;9.13;3.27;;;14.60;99.90;;;;;;5015072;28;20033;-66
2022/09/14 05:14:06;;;;;;;16.20;3.58;;;14.60;99.90;;;;;;5026743;28;20036;-67
2022/09/14 05:16:36;;;;;;;10.40;3.40;;;14.70;99.90;;;;;;5027746;28;20512;-67
2022/09/14 05:19:06;;;;;;;;;;;14.60;99.90;;;;;;5027917;28;20367;-67
2022/09/14 05:21:34;;;;;;;14.55;3.85;;;14.60;99.90;;;;;;5028130;28;19921;-66
2022/09/14 05:24:05;;;;;;;13.52;4.03;;;14.50;99.90;;;;;;5026936;28;20095;-66
2022/09/14 05:26:31;;;;;;;10.55;3.58;;;14.50;99.90;;;;;;5044569;28;20055;-66
2022/09/14 05:29:00;;;;;;;13.00;3.70;;;14.50;99.90;;;;;;5030181;28;20022;-66
2022/09/14 05:31:27;;;;;;;11.30;3.97;;;14.50;99.90;;;;;;5027567;28;20038;-66
2022/09/14 05:33:53;;;;;;;16.80;4.40;;;14.50;99.90;;;;;;5027594;28;20039;-66
2022/09/14 05:36:19;;;;;;;11.25;4.22;;;14.40;99.90;;;;;;5028230;28;20057;-66
2022/09/14 05:38:45;;;;;;;16.60;4.45;;;14.40;99.90;;;;;;5020130;28;20433;-67
2022/09/14 05:41:12;;;;;;;13.45;4.13;;;14.40;99.90;;;;;;5022844;28;20025;-66
2022/09/14 05:43:39;;;;;;;12.75;3.90;;;14.40;99.90;;;;;;5026908;28;20437;-66
2022/09/14 05:46:07;;;;;;;12.65;3.83;;;14.40;99.90;;;;;;5029340;28;20029;-66
2022/09/14 05:48:34;;;;;;;14.50;4.13;;;14.30;99.90;;;;;;5031728;28;20026;-66
2022/09/14 05:51:01;;;;;;;12.63;3.63;;;14.30;99.90;;;;;;5030535;28;20086;-66
2022/09/14 05:53:27;;;;;;;13.32;4.45;;;14.30;99.90;;;;;;5031123;28;20045;-66
2022/09/14 05:56:06;;;;;;;19.10;4.45;;;14.20;99.90;;;;;;5029749;28;20040;-66
2022/09/14 05:58:32;;;;;;;13.13;3.92;;;14.20;99.90;;;;;;5028471;28;20033;-65
2022/09/14 06:00:58;;;;;;;10.50;4.05;;;14.20;99.90;;;;;;5029688;28;20032;-66
2022/09/14 06:03:23;;;;;;;12.35;4.88;;;14.10;99.90;;;;;;5029728;28;20030;-67
2022/09/14 06:05:49;;;;;;;13.48;4.43;;;14.00;99.90;;;;;;5032226;28;20026;-65
2022/09/14 06:08:15;;;;;;;15.82;4.35;;;14.00;99.90;;;;;;5030951;28;20084;-65
2022/09/14 06:10:41;;;;;;;14.65;5.35;;;14.00;99.90;;;;;;5025574;28;20404;-66
2022/09/14 06:13:06;;;;;;;14.07;4.20;;;14.00;99.90;;;;;;5022188;28;20756;-66
2022/09/14 06:15:33;;;;;;;14.80;4.57;;;14.00;99.90;;;;;;5024744;28;20093;-66
2022/09/14 06:17:59;;;;;;;18.38;5.05;;;14.00;99.90;;;;;;5020100;28;20049;-66
2022/09/14 06:20:24;;;;;;;12.10;4.63;;;13.90;99.90;;;;;;5028270;28;20061;-65
2022/09/14 06:22:50;;;;;;;16.20;4.28;;;14.00;99.90;;;;;;5024284;28;20258;-66
2022/09/14 06:25:15;;;;;;;13.75;4.47;;;14.00;99.90;;;;;;5028241;28;20025;-66
2022/09/14 06:27:41;;;;;;;18.80;5.60;;;14.00;99.90;;;;;;5026372;28;20057;-66
2022/09/14 06:30:07;;;;;;;12.05;4.03;;;14.00;99.90;;;;;;5029287;28;20285;-66
2022/09/14 06:32:33;;;;;;;12.85;3.83;;;14.00;99.90;;;;;;5029119;28;20128;-66
2022/09/14 06:34:59;;;;;;;11.98;4.05;;;14.00;99.90;;;;;;5028308;28;20408;-66
2022/09/14 06:37:25;;;;;;;13.95;3.50;;;14.00;99.90;;;;;;5030263;28;20021;-66
2022/09/14 06:39:50;;;;;;;12.77;3.83;;;14.00;99.90;;;;;;5025774;28;20025;-66
2022/09/14 06:42:16;;;;;;;10.65;3.78;;;13.90;99.90;;;;;;5022572;28;20067;-66
2022/09/14 06:44:42;;;;;;;12.45;4.40;;;14.00;99.90;;;;;;5022816;28;20069;-66
2022/09/14 06:47:07;;;;;;;13.10;3.67;;;14.10;99.90;;;;;;5046550;28;20025;-65
2022/09/14 06:49:33;;;;;;;13.02;4.15;;;14.00;99.90;;;;;;5030758;28;20034;-66
2022/09/14 06:51:59;;;;;;;14.73;4.25;;;13.90;99.90;;;;;;5026740;28;20099;-67
2022/09/14 06:54:25;;;;;;;14.93;4.47;;;13.80;99.90;;;;;;5028572;28;20045;-66
2022/09/14 06:56:51;;;;;;;12.48;4.30;;;13.90;99.90;;;;;;5030458;28;20146;-66
2022/09/14 06:59:17;;;;;;;12.85;4.55;;;13.80;99.90;;;;;;5025613;28;20025;-66
2022/09/14 07:01:50;;;;;;;13.68;4.30;;;13.90;99.90;;;;;;5028316;28;20510;-66
2022/09/14 07:04:16;;;;;;;13.73;4.63;;;13.90;99.90;;;;;;5026359;28;20096;-66
2022/09/14 07:06:47;;;;;;;15.20;5.55;;;14.00;99.90;;;;;;5023580;28;20084;-66
2022/09/14 07:09:14;;;;;;;14.98;4.65;;;14.10;99.90;;;;;;5041318;28;20039;-66
2022/09/14 07:11:40;;;;;;;12.07;4.95;;;14.00;99.90;;;;;;5026066;28;20105;-66
2022/09/14 07:14:07;;;;;;;20.63;5.15;;;13.90;99.90;;;;;;5029319;28;20040;-66
2022/09/14 07:16:35;;;;;;;10.60;4.20;;;13.80;99.90;;;;;;5021768;28;20029;-66
2022/09/14 07:19:04;;;;;;;15.73;5.25;;;13.90;99.90;;;;;;5027671;28;20387;-66
2022/09/14 07:21:31;;;;;;;13.07;5.38;;;14.00;99.90;;;;;;5033806;28;20062;-66
2022/09/14 07:23:57;;;;;;;15.93;5.00;;;14.10;99.90;;;;;;5028561;28;20156;-66
2022/09/14 07:26:28;;;;;;;14.20;5.55;;;14.10;99.90;;;;;;5028002;28;20025;-66
2022/09/14 07:28:56;;;;;;;15.45;5.40;;;14.20;99.90;;;;;;5025994;28;20034;-66
2022/09/14 07:31:35;;;;;;;14.10;5.70;;;14.30;99.90;;;;;;5025372;28;20033;-66
2022/09/14 07:34:02;;;;;;;16.83;5.30;;;14.40;99.90;;;;;;5025474;28;20040;-66
2022/09/14 07:36:30;;;;;;;12.82;5.45;;;14.30;99.90;;;;;;5030352;28;20056;-66
2022/09/14 07:38:56;;;;;;;16.40;5.82;;;14.10;99.90;;;;;;5029554;28;20057;-66
2022/09/14 07:41:24;;;;;;;17.92;6.28;;;14.10;99.90;;;;;;5027150;28;20258;-66
2022/09/14 07:43:51;;;;;;;21.13;5.72;;;14.00;99.90;;;;;;5024935;28;20048;-66
2022/09/14 07:46:17;;;;;;;13.90;5.32;;;14.10;99.90;;;;;;5027738;28;20033;-66
2022/09/14 07:48:43;;;;;;;16.42;5.53;;;14.20;99.90;;;;;;5029152;28;20487;-66
2022/09/14 07:51:09;;;;;;;12.95;5.18;;;14.10;99.90;;;;;;5029125;28;20033;-65
2022/09/14 07:53:41;;;;;;;16.80;5.13;;;14.10;99.90;;;;;;5041480;28;20056;-65
2022/09/14 07:56:08;;;;;;;13.93;5.30;;;14.10;99.90;;;;;;5028644;28;20048;-66
2022/09/14 07:58:34;;;;;;;14.98;5.43;;;14.10;99.90;;;;;;5028563;28;20051;-65
2022/09/14 08:01:02;;;;;;;16.83;6.30;;;14.20;99.90;;;;;;5028764;28;20040;-66
2022/09/14 08:03:30;;;;;;;16.17;5.50;;;14.20;99.90;;;;;;5028386;28;20108;-66
2022/09/14 08:06:01;;;;;;;14.25;5.38;;;14.20;99.90;;;;;;5023211;28;20034;-66
2022/09/14 08:08:31;;;;;;;14.13;6.20;;;14.20;99.90;;;;;;5031380;28;20571;-66
2022/09/14 08:11:05;;;;;;;13.68;5.55;;;14.20;99.90;;;;;;5025409;28;20535;-66
2022/09/14 08:13:33;;;;;;;19.67;6.45;;;14.30;99.90;;;;;;5022953;28;20037;-66
2022/09/14 08:15:59;;;;;;;15.82;5.53;;;14.20;99.90;;;;;;5024191;28;20436;-66
2022/09/14 08:18:25;;;;;;;17.33;6.43;;;14.20;99.90;;;;;;5025771;28;20025;-66
2022/09/14 08:20:52;;;;;;;13.10;5.00;;;14.30;99.90;;;;;;5031504;28;20098;-65
2022/09/14 08:23:17;;;;;;;14.45;4.82;;;14.20;99.90;;;;;;5044445;28;20029;-66
2022/09/14 08:25:43;;;;;;;11.02;5.00;;;14.20;99.90;;;;;;5027664;28;20037;-66
2022/09/14 08:28:08;;;;;;;16.17;5.22;;;14.10;99.90;;;;;;5026529;28;20111;-66
2022/09/14 08:30:34;;;;;;;13.95;5.03;;;14.00;99.90;;;;;;5020257;28;20524;-65
2022/09/14 08:33:00;;;;;;;15.90;4.90;;;13.90;99.90;;;;;;5028455;28;20087;-65
2022/09/14 08:35:25;;;;;;;13.52;4.82;;;13.90;99.90;;;;;;5023221;28;20521;-66
2022/09/14 08:37:52;;;;;;;16.50;4.88;;;13.90;99.90;;;;;;5022702;28;20044;-65
2022/09/14 08:40:18;;;;;;;15.32;5.03;;;13.90;99.90;;;;;;5027735;28;20022;-65
2022/09/14 08:42:46;;;;;;;12.43;4.90;;;13.80;99.90;;;;;;5026556;28;20040;-65
2022/09/14 08:45:15;;;;;;;12.10;5.70;;;13.80;99.90;;;;;;5040887;28;20029;-65
2022/09/14 08:47:42;;;;;;;15.35;5.22;;;13.80;99.90;;;;;;5023358;28;20068;-65
2022/09/14 08:50:19;;;;;;;11.48;4.80;;;13.70;99.90;;;;;;5031244;28;20401;-66
2022/09/14 08:52:47;;;;;;;13.77;4.72;;;13.70;99.90;;;;;;5017847;28;20109;-65
2022/09/14 08:55:34;;;;;;;16.27;5.05;;;13.80;99.90;;;;;;5027752;28;20026;-65
2022/09/14 08:58:04;;;;;;;14.82;5.30;;;14.00;99.90;;;;;;5025647;28;20136;-65
2022/09/14 09:00:39;;;;;;;13.55;4.53;;;14.10;99.90;;;;;;5026760;28;20368;-65
2022/09/14 09:03:19;;;;;;;10.90;4.72;;;13.80;99.90;;;;;;5024744;28;20029;-65
2022/09/14 09:06:22;;;;;;;9.77;4.20;;;13.80;99.90;;;;;;5025306;28;20049;-65
2022/09/14 09:09:30;;;;;;;13.40;4.65;;;14.00;99.90;;;;;;5027929;28;20136;-65
2022/09/14 09:11:58;;;;;;;15.65;4.18;;;13.90;99.90;;;;;;5022089;28;20096;-65
2022/09/14 09:14:36;;;;;;;8.63;3.30;;;13.70;99.90;;;;;;5020375;28;20025;-65
2022/09/14 09:17:13;;;;;;;12.40;3.30;;;13.90;99.90;;;;;;5026292;28;20708;-65
2022/09/14 09:20:06;;;;;;;8.40;2.85;;;13.90;99.90;;;;;;5027472;28;20058;-65
2022/09/14 09:22:41;;;;;;;11.93;2.75;;;13.80;99.90;;;;;;5025937;28;20052;-63
2022/09/14 09:25:26;;;;;;;9.35;2.90;;;14.00;99.90;;;;;;5024375;28;20091;-63
2022/09/14 09:27:55;;;;;;;8.10;2.80;;;14.10;99.90;;;;;;5023580;28;20040;-64
2022/09/14 09:30:21;;;;;;;6.88;2.60;;;13.90;99.90;;;;;;5029352;28;20018;-64
2022/09/14 09:32:47;;;;;;;7.15;2.15;;;13.80;99.90;;;;;;5041476;28;20021;-64
2022/09/14 09:35:15;;;;;;;6.28;2.05;;;13.70;99.90;;;;;;5041475;28;20017;-64
2022/09/14 09:37:41;;;;;;;9.77;2.45;;;13.60;99.90;;;;;;5026332;28;20087;-63
2022/09/14 09:40:33;;;;;;;8.82;2.65;;;13.60;99.90;;;;;;5025123;28;20030;-63
2022/09/14 09:43:17;;;;;;;8.88;2.95;;;13.80;99.90;;;;;;5023446;28;20121;-64
2022/09/14 09:45:50;;;;;;;10.88;3.30;;;13.60;99.90;;;;;;5023341;28;20036;-64
2022/09/14 09:48:18;;;;;;;9.43;3.08;;;13.80;99.90;;;;;;5023258;28;20108;-64
2022/09/14 09:51:08;;;;;;;11.82;3.53;;;13.80;99.90;;;;;;5026046;28;20560;-64
2022/09/14 09:53:37;;;;;;;11.37;4.13;;;13.80;99.90;;;;;;5023792;28;20337;-64
2022/09/14 09:56:03;;;;;;;7.32;3.10;;;13.90;99.90;;;;;;5020625;28;20021;-63
2022/09/14 09:58:36;;;;;;;11.07;3.35;;;13.80;99.90;;;;;;5026767;28;20416;-64
2022/09/14 10:01:16;;;;;;;9.38;3.47;;;13.80;99.90;;;;;;5024613;28;20361;-63
2022/09/14 10:03:42;;;;;;;8.20;3.60;;;13.90;99.90;;;;;;5016858;28;20025;-64
2022/09/14 10:06:10;;;;;;;7.40;3.30;;;13.80;99.90;;;;;;5023893;28;20504;-64
2022/09/14 10:08:44;;;;;;;7.65;3.30;;;13.70;99.90;;;;;;5026652;28;20026;-64
2022/09/14 10:11:36;;;;;;;9.40;3.67;;;13.70;99.90;;;;;;5022753;28;20203;-64
2022/09/14 10:14:33;;;;;;;10.40;4.07;;;13.70;99.90;;;;;;5020617;28;20460;-64
2022/09/14 10:17:20;;;;;;;11.25;4.00;;;13.70;99.90;;;;;;5022279;28;20282;-63
2022/09/14 10:19:51;;;;;;;12.77;3.83;;;13.60;99.90;;;;;;5018247;28;20048;-64
2022/09/14 10:22:28;;;;;;;10.93;3.92;;;13.70;99.90;;;;;;5018274;28;20480;-64
2022/09/14 10:25:17;;;;;;;10.98;4.30;;;13.70;99.90;;;;;;5035626;28;20075;-64
2022/09/14 10:27:48;;;;;;;9.98;4.15;;;13.70;99.90;;;;;;5035358;28;20516;-64
2022/09/14 10:30:26;;;;;;;9.95;4.20;;;13.90;99.90;;;;;;5025285;28;20367;-63
2022/09/14 10:33:00;;;;;;;8.52;3.80;;;13.80;99.90;;;;;;5025116;28;20025;-64
2022/09/14 10:35:41;;;;;;;9.27;3.63;;;13.80;99.90;;;;;;5021177;28;20367;-64
2022/09/14 10:38:14;;;;;;;10.52;3.20;;;13.60;99.90;;;;;;5022051;28;20014;-64
2022/09/14 10:40:45;;;;;;;9.27;3.67;;;13.60;99.90;;;;;;5025467;28;20030;-64
2022/09/14 10:43:22;;;;;;;8.05;3.20;;;13.60;99.90;;;;;;5023215;28;20049;-64
2022/09/14 10:45:57;;;;;;;9.00;3.40;;;13.80;99.90;;;;;;5022076;28;20033;-64
2022/09/14 10:48:28;;;;;;;8.38;3.50;;;13.80;99.90;;;;;;5017853;28;20032;-64
2022/09/14 10:51:11;;;;;;;8.90;3.22;;;13.80;99.90;;;;;;5026900;28;20032;-64
2022/09/14 10:53:51;;;;;;;10.50;3.88;;;13.70;99.90;;;;;;5023266;28;20482;-64
2022/09/14 10:56:17;;;;;;;;;;;13.70;99.90;;;;;;5019504;28;20393;-64
2022/09/14 10:58:51;;;;;;;12.13;3.70;;;13.50;99.90;;;;;;5018978;28;20599;-64
2022/09/14 11:01:28;;;;;;;9.52;3.70;;;13.50;99.90;;;;;;5026634;28;20113;-64
2022/09/14 11:04:15;;;;;;;8.75;3.20;;;13.70;99.90;;;;;;5016719;28;20517;-64
2022/09/14 11:07:19;;;;;;;10.85;2.80;;;13.90;99.90;;;;;;5025025;28;20053;-64
2022/09/14 11:10:15;;;;;;;10.63;2.75;;;13.60;99.90;;;;;;5021859;28;20509;-64
2022/09/14 11:13:11;;;;;;;8.90;3.00;;;13.80;99.90;;;;;;5022368;28;20035;-64
2022/09/14 11:15:46;;;;;;;9.48;2.97;;;13.60;99.90;;;;;;5003483;28;20489;-64
2022/09/14 11:18:42;;;;;;;9.23;2.42;;;13.40;99.90;;;;;;5023249;28;20029;-64
2022/09/14 11:21:27;;;;;;;9.02;3.13;;;13.50;99.90;;;;;;5021690;28;20053;-64
2022/09/14 11:24:01;;;;;;;7.78;2.72;;;13.80;99.90;;;;;;5020445;28;20036;-64
2022/09/14 11:26:36;;;;;;;10.57;2.97;;;13.60;99.90;;;;;;5023900;28;20033;-64
2022/09/14 11:29:33;;;;;;;7.63;2.38;;;13.70;99.90;;;;;;5022292;28;20154;-64
2022/09/14 11:32:10;;;;;;;7.82;2.35;;;13.80;99.90;;;;;;5024834;28;20034;-64
2022/09/14 11:35:02;;;;;;;7.50;2.70;;;13.80;99.90;;;;;;5025180;28;20036;-64
2022/09/14 11:37:37;;;;;;;8.07;2.63;;;13.80;99.90;;;;;;5021685;28;20411;-64
2022/09/14 11:40:33;;;;;;;9.55;2.65;;;13.90;99.90;;;;;;5018057;28;20452;-64
2022/09/14 11:43:05;;;;;;;6.97;2.42;;;14.00;99.90;;;;;;5019077;28;20052;-64
2022/09/14 11:46:00;;;;;;;9.38;2.60;;;14.00;99.90;;;;;;5023411;28;20021;-64
2022/09/14 11:48:47;;;;;;;6.53;2.75;;;14.10;99.90;;;;;;5019966;28;20465;-64
2022/09/14 11:51:31;;;;;;;9.68;3.35;;;14.30;99.90;;;;;;5023190;28;20508;-64
2022/09/14 11:53:57;;;;;;;8.95;3.08;;;14.30;99.90;;;;;;5021277;28;20032;-64
2022/09/14 11:56:25;;;;;;;9.20;2.80;;;14.20;99.90;;;;;;5023867;28;20017;-64
2022/09/14 11:59:05;;;;;;;10.15;3.13;;;14.20;99.90;;;;;;5023253;28;20100;-64
2022/09/14 12:01:38;;;;;;;7.53;2.60;;;14.10;99.90;;;;;;5020539;28;20450;-64
2022/09/14 12:04:16;;;;;;;7.43;2.38;;;14.20;99.90;;;;;;5021356;28;20052;-64
2022/09/14 12:06:46;;;;;;;8.75;2.72;;;14.20;99.90;;;;;;5024185;28;20337;-64
2022/09/14 12:09:15;;;;;;;8.95;2.55;;;14.10;99.90;;;;;;5022632;28;20112;-64
2022/09/14 12:11:42;;;;;;;7.45;2.40;;;14.30;99.90;;;;;;5023197;28;20029;-64
2022/09/14 12:14:23;;;;;;;6.75;2.30;;;14.40;99.90;;;;;;5026059;28;20416;-64
2022/09/14 12:17:16;;;;;;;7.80;2.65;;;14.30;99.90;;;;;;5018151;28;20567;-64
2022/09/14 12:19:45;;;;;;;9.20;2.20;;;14.10;99.90;;;;;;5013416;28;20075;-64
2022/09/14 12:22:33;;;;;;;8.32;2.63;;;14.10;99.90;;;;;;5018719;28;20057;-63
2022/09/14 12:25:07;;;;;;;7.47;2.45;;;14.00;99.90;;;;;;5017864;28;20091;-64
2022/09/14 12:27:36;;;;;;;5.93;2.15;;;14.10;99.90;;;;;;5034222;28;20026;-64
2022/09/14 12:30:21;;;;;;;6.38;1.95;;;14.20;99.90;;;;;;5018695;28;20156;-64
2022/09/14 12:32:47;;;;;;;9.10;2.55;;;14.30;99.90;;;;;;5019910;28;20044;-65
2022/09/14 12:35:37;;;;;;;6.82;2.47;;;14.50;99.90;;;;;;5018480;28;20418;-64
2022/09/14 12:38:28;;;;;;;7.05;2.20;;;14.30;99.90;;;;;;5018035;28;20099;-64
2022/09/14 12:40:57;;;;;;;9.75;2.22;;;14.50;99.90;;;;;;5031938;28;20030;-64
2022/09/14 12:43:35;;;;;;;6.60;2.38;;;14.50;99.90;;;;;;5019705;28;20713;-64
2022/09/14 12:46:03;;;;;;;7.00;2.42;;;14.30;99.90;;;;;;5019283;28;20029;-64
2022/09/14 12:48:47;;;;;;;8.52;2.63;;;14.40;99.90;;;;;;5014913;28;20473;-64
2022/09/14 12:51:31;;;;;;;7.78;2.30;;;14.40;99.90;;;;;;5023514;28;20033;-64
2022/09/14 12:53:57;;;;;;;9.90;2.50;;;14.60;99.90;;;;;;5021872;28;20033;-64
2022/09/14 12:56:44;;;;;;;6.95;2.42;;;14.40;99.90;;;;;;5029430;28;20096;-64
2022/09/14 12:59:28;;;;;;;8.10;2.28;;;14.40;99.90;;;;;;5026468;28;20100;-64
2022/09/14 13:01:56;;;;;;;13.52;2.65;;;14.50;99.90;;;;;;5024595;28;20458;-64
2022/09/14 13:04:30;;;;;;;7.15;2.40;;;14.50;99.90;;;;;;5019130;28;20030;-65
2022/09/14 13:07:00;;;;;;;7.68;2.80;;;14.50;99.90;;;;;;5026586;28;20037;-64
2022/09/14 13:09:28;;;;;;;9.65;3.20;;;14.50;99.90;;;;;;5022359;28;20573;-64